KTVL/TVL METAR and TAF weather

Enter ICAO airport designator
Station Type Date Time Source
KTVL METAR 2019/08/22 06:53 UTC NOAA

KTVL 220653Z AUTO 18003KT 10SM CLR 11/03 A3014 RMK AO2 SLP145 T01060028


Station Type Date Time Source
KTVL Decoded METAR 2019/08/22 06:53 UTC NOAA

Station name not available
Aug 22, 2019 - 02:53 AM EDT / 2019.08.22 0653 UTC
Wind: from the S (180 degrees) at 3 MPH (3 KT):0
Visibility: 10 mile(s):0
Sky conditions: clear
Temperature: 51.1 F (10.6 C)
Dew Point: 37.0 F (2.8 C)
Relative Humidity: 58%
Pressure (altimeter): 30.14 in. Hg (1020 hPa)
ob: KTVL 220653Z AUTO 18003KT 10SM CLR 11/03 A3014 RMK AO2 SLP145 T01060028
cycle: 7

Station Type Date Time Source
KTVL TAF 2019/08/22 06:27 UTC NOAA

TAF KTVL 220525Z 2206/2306 19005KT P6SM SCT180

Example: see airport list